Data for 10/20/2005

Time Sea-Level Adjusted Pressure Absolute Pressure Temperature Relative Humidity Dew Point   
(mb) (inHg) (mb) (inHg) (C) (F) (%) (C) (F)
00:05 1018 30.06 847 25.01 8.5 47.4 80 5.2 41.4
00:10 1018 30.06 847 25.01 8 46.4 81 4.9 40.9
00:15 1018 30.06 847 25.01 7.9 46.3 81 5 40.9
00:20 1018 30.06 847 25.01 7.8 46 81 4.7 40.5
00:25 1018 30.06 847 25.01 7.7 45.9 80 4.6 40.2
00:30 1018 30.06 847 25.01 7.6 45.7 81 4.6 40.3
00:35 1018 30.06 847 25.01 7.6 45.7 80 4.3 39.8
00:40 1018 30.06 847 25.01 7.9 46.2 78 4.3 39.8
00:45 1018 30.06 847 25.01 8.1 46.6 77 4.3 39.7
00:50 1018 30.06 847 25.01 8.3 47 76 4.4 39.9
00:55 1018 30.06 847 25.01 8.4 47.1 75 4.2 39.6
01:00 1018 30.06 847 25.01 8.5 47.3 75 4.4 39.9
01:05 1018 30.06 847 25.01 8.7 47.6 76 4.7 40.5
01:10 1018 30.06 847 25.01 8 46.4 79 4.7 40.4
01:15 1018 30.06 847 25.01 7.7 45.8 81 4.6 40.3
01:20 1018 30.06 847 25.01 7.6 45.7 82 4.7 40.5
01:25 1018 30.06 847 25.01 7.7 45.8 81 4.6 40.2
01:30 1018 30.06 847 25.01 7.7 45.9 78 4.1 39.5
01:35 1018 30.06 847 25.01 7.8 46 79 4.4 39.9
01:40 1018 30.06 847 25.01 7.8 46 77 4 39.2
01:45 1018 30.06 847 25.01 7.8 46.1 76 3.8 38.9
01:50 1018 30.06 847 25.01 8 46.4 76 4.1 39.3
01:55 1018 30.06 847 25.01 7.8 46.1 78 4.2 39.6
02:00 1018 30.06 847 25.01 7.7 45.8 79 4.3 39.7
02:05 1018 30.06 847 25.01 7.6 45.7 78 4.1 39.4
02:10 1018 30.06 847 25.01 7.4 45.3 78 3.9 39
02:15 1018 30.06 847 25.01 7.5 45.5 76 3.5 38.3
02:20 1018 30.06 848 25.04 7.4 45.3 76 3.5 38.3
02:25 1018 30.06 848 25.04 7.4 45.2 74 3 37.5
02:30 1018 30.06 848 25.04 7.7 45.8 74 3.3 37.9
02:35 1018 30.06 848 25.04 7.6 45.7 72 3 37.4
02:40 1018 30.06 848 25.04 7.1 44.8 76 3.2 37.8
02:45 1018 30.06 848 25.04 6.7 44 79 3.2 37.8
02:50 1019 30.09 848 25.04 6.5 43.8 79 3.1 37.6
02:55 1019 30.09 848 25.04 6.3 43.4 81 3.3 37.9
03:00 1019 30.09 848 25.04 6.5 43.7 77 2.9 37.1
03:05 1019 30.09 848 25.04 6.9 44.4 77 3.2 37.7
03:10 1019 30.09 848 25.04 7.1 44.8 77 3.3 37.9
03:15 1019 30.09 848 25.04 7.2 45 75 3 37.5
03:20 1019 30.09 848 25.04 7.1 44.7 76 3.1 37.6
03:25 1019 30.09 848 25.04 6.7 44.1 78 3.1 37.6
03:30 1019 30.09 848 25.04 6.8 44.2 78 3.3 37.9
03:35 1019 30.09 848 25.04 6.6 43.9 79 3.2 37.8
03:40 1019 30.09 848 25.04 6.5 43.6 80 3.2 37.8
03:45 1019 30.09 848 25.04 6.4 43.5 80 3.1 37.6
03:50 1019 30.09 848 25.04 6.5 43.8 80 3.3 37.9
03:55 1019 30.09 848 25.04 6.5 43.8 80 3.4 38.1
04:00 1019 30.09 848 25.04 6.6 43.9 78 3.1 37.5
04:05 1019 30.09 848 25.04 6.6 43.9 79 3.2 37.8
04:10 1019 30.09 848 25.04 6.5 43.8 79 3.2 37.7
04:15 1019 30.09 848 25.04 6.6 43.9 80 3.4 38.2
04:20 1019 30.09 848 25.04 6.5 43.7 81 3.4 38.2
04:25 1019 30.09 848 25.04 6.4 43.6 80 3.3 37.9
04:30 1019 30.09 848 25.04 6.4 43.5 80 3.3 37.9
04:35 1019 30.09 848 25.04 6.4 43.6 78 2.9 37.2
04:40 1019 30.09 848 25.04 6.6 43.8 77 2.9 37.3
04:45 1019 30.09 848 25.04 6.5 43.7 78 2.9 37.2
04:50 1019 30.09 848 25.04 6.4 43.6 77 2.7 36.9
04:55 1019 30.09 848 25.04 6.2 43.2 77 2.6 36.7
05:00 1019 30.09 848 25.04 5.8 42.5 80 2.7 36.8
05:05 1019 30.09 848 25.04 5.6 42 79 2.3 36.1
05:10 1019 30.09 848 25.04 5.6 42 79 2.2 36
05:15 1019 30.09 848 25.04 5.6 42.2 76 1.8 35.3
05:20 1019 30.09 848 25.04 5.8 42.4 76 1.9 35.4
05:25 1019 30.09 848 25.04 5.5 42 75 1.5 34.8
05:30 1019 30.09 848 25.04 5.3 41.5 77 1.5 34.7
05:35 1019 30.09 848 25.04 4.9 40.8 77 1.2 34.2
05:40 1019 30.09 848 25.04 4.8 40.6 78 1.2 34.2
05:45 1019 30.09 848 25.04 4.8 40.6 78 1.3 34.4
05:50 1019 30.09 848 25.04 4.8 40.7 78 1.3 34.3
05:55 1019 30.09 848 25.04 4.8 40.7 77 1.2 34.1
06:00 1019 30.09 848 25.04 4.9 40.8 78 1.4 34.6
06:05 1019 30.09 848 25.04 4.9 40.8 78 1.3 34.4
06:10 1019 30.09 848 25.04 5.1 41.2 77 1.5 34.7
06:15 1019 30.09 848 25.04 5.2 41.4 77 1.5 34.8
06:20 1019 30.09 848 25.04 5.2 41.4 76 1.3 34.4
06:25 1019 30.09 848 25.04 5.4 41.7 75 1.3 34.4
06:30 1019 30.09 849 25.07 5.5 42 75 1.4 34.5
06:35 1019 30.09 849 25.07 5.4 41.8 76 1.5 34.6
06:40 1019 30.09 849 25.07 5.4 41.7 76 1.5 34.7
06:45 1019 30.09 849 25.07 5.3 41.6 77 1.6 34.8
06:50 1019 30.09 849 25.07 5 40.9 78 1.5 34.6
06:55 1019 30.09 849 25.07 4.6 40.4 79 1.3 34.4
07:00 1019 30.09 849 25.07 4.7 40.5 79 1.4 34.5
07:05 1020 30.12 849 25.07 4.8 40.6 79 1.4 34.5
07:10 1020 30.12 849 25.07 4.8 40.6 78 1.3 34.4
07:15 1020 30.12 849 25.07 4.9 40.7 78 1.3 34.3
07:20 1020 30.12 849 25.07 4.9 40.8 77 1.2 34.2
07:25 1020 30.12 849 25.07 4.9 40.7 77 1.2 34.1
07:30 1020 30.12 849 25.07 4.8 40.7 77 1.2 34.1
07:35 1020 30.12 849 25.07 4.8 40.7 78 1.2 34.2
07:40 1020 30.12 849 25.07 4.8 40.7 78 1.3 34.3
07:45 1020 30.12 849 25.07 4.8 40.6 78 1.3 34.4
07:50 1020 30.12 849 25.07 4.8 40.6 78 1.3 34.4
07:55 1020 30.12 849 25.07 4.9 40.8 78 1.3 34.3
08:00 1020 30.12 849 25.07 4.8 40.6 78 1.3 34.3
08:05 1020 30.12 849 25.07 4.6 40.4 78 1.2 34.1
08:10 1020 30.12 849 25.07 4.6 40.2 78 1 33.8
08:15 1020 30.12 849 25.07 4.6 40.3 76 0.8 33.5
08:20 1020 30.12 849 25.07 4.8 40.6 77 1.1 34
08:25 1020 30.12 849 25.07 5 40.9 76 1.1 34
08:30 1020 30.12 849 25.07 5.1 41.2 75 1 33.9
08:35 1020 30.12 849 25.07 5.1 41.2 75 1.1 33.9
08:40 1020 30.12 849 25.07 5 41 75 1 33.9
08:45 1020 30.12 849 25.07 5.1 41.2 75 1 33.8
08:50 1020 30.12 849 25.07 5.2 41.3 75 1 33.8
08:55 1020 30.12 850 25.1 5.2 41.4 75 1.1 34
09:00 1020 30.12 850 25.1 5.2 41.4 75 1.2 34.2
09:05 1020 30.12 850 25.1 5.2 41.3 76 1.3 34.3
09:10 1020 30.12 850 25.1 5.5 41.9 74 1.2 34.2
09:15 1021 30.15 850 25.1 6 42.7 73 1.4 34.6
09:20 1021 30.15 850 25.1 5.9 42.6 74 1.7 35.1
09:25 1021 30.15 850 25.1 6.1 42.9 74 1.7 35.1
09:30 1021 30.15 850 25.1 6.4 43.5 73 1.9 35.5
09:35 1021 30.15 850 25.1 6.6 43.8 72 1.9 35.3
09:40 1021 30.15 850 25.1 7 44.5 71 2.1 35.8
09:45 1021 30.15 850 25.1 7.7 45.9 66 1.9 35.4
09:50 1021 30.15 850 25.1 8.4 47.1 65 2.2 36
09:55 1021 30.15 850 25.1 9.4 48.8 63 2.7 36.9
10:00 1021 30.15 850 25.1 9.6 49.3 62 2.8 37.1
10:05 1021 30.15 850 25.1 10.1 50.1 62 3.2 37.7
10:10 1021 30.15 850 25.1 10.3 50.6 56 2 35.6
10:15 1021 30.15 850 25.1 10.3 50.5 51 0.7 33.2
10:20 1021 30.15 850 25.1 10.9 51.5 48 0.3 32.5
10:25 1021 30.15 850 25.1 11.3 52.4 47 0.5 32.9
10:30 1021 30.15 850 25.1 11.4 52.6 47 0.7 33.2
10:35 1021 30.15 850 25.1 11.8 53.3 47 0.9 33.7
10:40 1021 30.15 850 25.1 12.2 54 46 1 33.7
10:45 1021 30.15 850 25.1 11.6 52.8 46 0.3 32.5
10:50 1021 30.15 850 25.1 12 53.7 42 -0.4 31.3
10:55 1021 30.15 850 25.1 12.2 54 42 -0.3 31.5
11:00 1021 30.15 850 25.1 11.7 53.1 46 0.5 32.9
11:05 1021 30.15 850 25.1 11.8 53.3 44 0 32
11:10 1021 30.15 850 25.1 12.2 54 41 -0.4 31.2
11:15 1021 30.15 850 25.1 12.3 54.2 43 0.1 32.1
11:20 1021 30.15 850 25.1 12.7 54.8 40 -0.4 31.2
11:25 1021 30.15 850 25.1 13 55.3 41 0.1 32.2
11:30 1021 30.15 850 25.1 13 55.4 41 0.2 32.3
11:35 1021 30.15 850 25.1 13.3 55.9 39 -0.2 31.6
11:40 1021 30.15 850 25.1 13.4 56.2 41 0.5 32.8
11:45 1021 30.15 850 25.1 12.7 54.9 42 0.2 32.4
11:50 1021 30.15 850 25.1 13.1 55.6 41 0.4 32.6
11:55 1021 30.15 850 25.1 13.1 55.7 41 0.1 32.2
12:00 1021 30.15 850 25.1 13.1 55.6 41 0.3 32.6
12:05 1021 30.15 850 25.1 13 55.4 41 0.3 32.5
12:10 1021 30.15 850 25.1 12.9 55.2 42 0.5 32.9
12:15 1021 30.15 850 25.1 12.9 55.2 43 0.6 33.1
12:20 1021 30.15 850 25.1 12.4 54.4 44 0.5 33
12:25 1021 30.15 850 25.1 12.8 55 43 0.8 33.4
12:30 1021 30.15 850 25.1 12.8 55 44 0.9 33.6
12:35 1021 30.15 850 25.1 12.2 53.9 45 0.6 33.1
12:40 1021 30.15 850 25.1 12.8 55 42 0.1 32.2
12:45 1021 30.15 850 25.1 13.2 55.7 43 0.9 33.6
12:50 1021 30.15 850 25.1 12.8 55 43 0.6 33
12:55 1021 30.15 850 25.1 12.8 55 42 0.4 32.7
13:00 1021 30.15 850 25.1 13.1 55.6 42 0.7 33.2
13:05 1021 30.15 850 25.1 13.3 56 41 0.4 32.7
13:10 1021 30.15 850 25.1 13.1 55.6 42 0.6 33
13:15 1021 30.15 850 25.1 12.7 54.9 42 0.2 32.3
13:20 1021 30.15 850 25.1 12.9 55.3 42 0.3 32.6
13:25 1021 30.15 850 25.1 13.2 55.7 41 0.3 32.5
13:30 1021 30.15 850 25.1 12.4 54.2 45 0.8 33.5
13:35 1021 30.15 850 25.1 12.4 54.4 43 0.4 32.7
13:40 1021 30.15 850 25.1 12.8 55 42 0.3 32.5
13:45 1021 30.15 850 25.1 12.9 55.3 42 0.2 32.4
13:50 1021 30.15 850 25.1 12.8 55.1 42 0.3 32.5
13:55 1021 30.15 850 25.1 12.6 54.7 43 0.5 32.9
14:00 1021 30.15 850 25.1 12.7 54.9 43 0.4 32.8
14:05 1021 30.15 850 25.1 12.6 54.6 43 0.4 32.8
14:10 1021 30.15 850 25.1 12.7 54.8 42 0.2 32.4
14:15 1021 30.15 850 25.1 12.9 55.3 42 0.5 32.8
14:20 1021 30.15 850 25.1 13 55.5 42 0.6 33.1
14:25 1021 30.15 850 25.1 13.4 56 42 0.7 33.2
14:30 1021 30.15 850 25.1 13 55.4 42 0.6 33.1
14:35 1021 30.15 850 25.1 13.1 55.5 42 0.5 32.8
14:40 1021 30.15 850 25.1 13.2 55.7 42 0.6 33
14:45 1021 30.15 850 25.1 12.9 55.1 44 0.8 33.5
14:50 1021 30.15 850 25.1 12.6 54.7 44 0.7 33.2
14:55 1021 30.15 850 25.1 13.1 55.5 42 0.4 32.8
15:00 1021 30.15 850 25.1 13.5 56.2 39 0 32
15:05 1021 30.15 850 25.1 13.7 56.6 40 0.5 32.9
15:10 1021 30.15 850 25.1 14.2 57.5 39 0.5 32.9
15:15 1021 30.15 850 25.1 14 57.3 40 0.6 33.1
15:20 1021 30.15 850 25.1 13.8 56.9 40 0.4 32.7
15:25 1021 30.15 850 25.1 13.8 56.8 40 0.6 33
15:30 1021 30.15 850 25.1 13.8 56.8 41 0.8 33.4
15:35 1021 30.15 850 25.1 13.5 56.2 41 0.5 32.8
15:40 1021 30.15 850 25.1 12.6 54.7 43 0.4 32.6
15:45 1021 30.15 850 25.1 12.2 54 44 0.5 32.9
15:50 1021 30.15 850 25.1 12.1 53.8 44 0.2 32.4
15:55 1021 30.15 850 25.1 12.4 54.2 43 0.3 32.6
16:00 1021 30.15 850 25.1 12.6 54.6 42 0.2 32.3
16:05 1021 30.15 850 25.1 13.3 55.9 40 -0 31.9
16:10 1021 30.15 850 25.1 13.3 55.9 41 0.3 32.5
16:15 1021 30.15 850 25.1 13.5 56.3 40 0.2 32.4
16:20 1021 30.15 850 25.1 13.4 56.2 41 0.4 32.7
16:25 1021 30.15 850 25.1 13.7 56.7 38 -0.1 31.8
16:30 1021 30.15 850 25.1 14.2 57.5 37 -0 31.9
16:35 1021 30.15 850 25.1 14.1 57.3 38 -0.1 31.9
16:40 1021 30.15 850 25.1 13.8 56.8 39 -0 32
16:45 1021 30.15 850 25.1 13.8 56.9 39 0.2 32.4
16:50 1021 30.15 850 25.1 13.6 56.4 39 0 32.1
16:55 1021 30.15 850 25.1 13.5 56.4 39 0 32
17:00 1021 30.15 850 25.1 13.8 56.8 37 -0.4 31.2
17:05 1021 30.15 850 25.1 13.7 56.7 38 -0.3 31.4
17:10 1021 30.15 851 25.13 14.1 57.5 36 -0.8 30.5
17:15 1021 30.15 850 25.1 14.4 57.9 36 -0.6 31
17:20 1021 30.15 850 25.1 14.3 57.8 35 -0.8 30.6
17:25 1021 30.15 851 25.13 14.6 58.2 36 -0.2 31.6
17:30 1021 30.15 851 25.13 14.3 57.7 37 -0.2 31.6
17:35 1021 30.15 851 25.13 13.9 56.9 38 -0.3 31.5
17:40 1021 30.15 851 25.13 13.9 57 38 -0.3 31.5
17:45 1021 30.15 851 25.13 13.6 56.5 39 0.1 32.2
17:50 1021 30.15 851 25.13 13 55.5 41 0.3 32.5
17:55 1021 30.15 851 25.13 12.8 55 41 0 32
18:00 1021 30.15 851 25.13 12.9 55.3 42 0.2 32.4
18:05 1021 30.15 851 25.13 13 55.3 43 0.6 33
18:10 1021 30.15 851 25.13 12.5 54.6 43 0.5 32.9
18:15 1021 30.15 851 25.13 12.4 54.2 44 0.6 33.1
18:20 1021 30.15 851 25.13 12.3 54.2 44 0.4 32.8
18:25 1021 30.15 851 25.13 12.4 54.2 45 0.8 33.5
18:30 1021 30.15 851 25.13 12.4 54.3 44 0.6 33
18:35 1022 30.18 851 25.13 12.1 53.7 48 1.4 34.5
18:40 1022 30.18 851 25.13 11.4 52.5 52 2 35.6
18:45 1022 30.18 851 25.13 10.5 50.9 55 2 35.5
18:50 1022 30.18 851 25.13 9.8 49.6 58 1.9 35.3
18:55 1022 30.18 851 25.13 9.5 49.1 57 1.5 34.8
19:00 1022 30.18 851 25.13 9.4 48.9 59 1.7 35.1
19:05 1022 30.18 851 25.13 9.1 48.3 60 1.8 35.2
19:10 1022 30.18 851 25.13 9 48.1 59 1.5 34.7
19:15 1022 30.18 851 25.13 9 48.1 59 1.5 34.7
19:20 1022 30.18 851 25.13 8.7 47.7 61 1.5 34.7
19:25 1022 30.18 851 25.13 8.7 47.7 60 1.4 34.5
19:30 1022 30.18 851 25.13 8.7 47.7 61 1.6 34.8
19:35 1022 30.18 851 25.13 8.5 47.3 61 1.4 34.5
19:40 1022 30.18 851 25.13 8.4 47.2 61 1.3 34.3
19:45 1022 30.18 851 25.13 8.4 47.1 62 1.5 34.6
19:50 1022 30.18 851 25.13 7.9 46.2 65 1.7 35.1
19:55 1022 30.18 851 25.13 7.7 45.8 64 1.4 34.5
20:00 1022 30.18 852 25.16 7.7 45.8 63 1.1 34
20:05 1022 30.18 852 25.16 7.7 45.8 63 1.2 34.1
20:10 1022 30.18 852 25.16 7.5 45.6 64 1.3 34.3
20:15 1022 30.18 852 25.16 7.3 45.2 65 1.1 34
20:20 1023 30.21 852 25.16 7.4 45.3 63 0.8 33.5
20:25 1023 30.21 852 25.16 7.5 45.5 62 0.6 33.1
20:30 1023 30.21 852 25.16 7.7 45.9 61 0.7 33.3
20:35 1023 30.21 852 25.16 7.7 45.8 62 0.8 33.5
20:40 1023 30.21 852 25.16 7.7 45.8 62 1 33.8
20:45 1023 30.21 852 25.16 7.7 45.9 60 0.5 32.9
20:50 1023 30.21 852 25.16 8.1 46.6 58 0.3 32.5
20:55 1023 30.21 852 25.16 8.4 47.1 57 0.4 32.7
21:00 1023 30.21 852 25.16 8.5 47.2 57 0.5 32.9
21:05 1023 30.21 852 25.16 8.4 47.2 58 0.6 33
21:10 1023 30.21 852 25.16 8.3 46.9 58 0.6 33.1
21:15 1023 30.21 852 25.16 8.2 46.8 59 0.7 33.3
21:20 1023 30.21 852 25.16 8.2 46.7 60 0.9 33.6
21:25 1023 30.21 853 25.19 8.2 46.8 60 0.9 33.6
21:30 1023 30.21 853 25.19 8.2 46.7 61 1.1 34
21:35 1023 30.21 853 25.19 7.9 46.2 62 1.1 34
21:40 1023 30.21 853 25.19 7.6 45.8 63 1.1 34
21:45 1023 30.21 853 25.19 7.4 45.3 64 1 33.9
21:50 1023 30.21 853 25.19 7 44.6 66 1.1 34
21:55 1023 30.21 853 25.19 6.8 44.3 66 1 33.8
22:00 1023 30.21 853 25.19 6.9 44.4 67 1.3 34.3
22:05 1024 30.24 853 25.19 6.7 44 67 1.1 33.9
22:10 1024 30.24 853 25.19 6.8 44.2 65 0.6 33.1
22:15 1024 30.24 853 25.19 6.9 44.5 64 0.5 33
22:20 1024 30.24 853 25.19 7.1 44.8 63 0.6 33.1
22:25 1024 30.24 853 25.19 7.3 45.1 61 0.3 32.5
22:30 1024 30.24 853 25.19 7.6 45.6 61 0.7 33.2
22:35 1024 30.24 853 25.19 7.2 45 62 0.5 33
22:40 1024 30.24 853 25.19 7.2 45 63 0.6 33.1
22:45 1024 30.24 853 25.19 7.3 45.2 61 0.4 32.7
22:50 1024 30.24 853 25.19 7.7 45.8 59 0.3 32.6
22:55 1024 30.24 853 25.19 7.9 46.2 59 0.4 32.7
23:00 1024 30.24 853 25.19 8 46.4 59 0.6 33
23:05 1024 30.24 853 25.19 7.9 46.3 59 0.5 33
23:10 1024 30.24 853 25.19 7.9 46.2 60 0.6 33.2
23:15 1024 30.24 853 25.19 7.9 46.2 60 0.7 33.2
23:20 1024 30.24 853 25.19 7.7 45.8 61 0.7 33.3
23:25 1024 30.24 853 25.19 7.3 45.1 63 0.7 33.2
23:30 1024 30.24 853 25.19 7.3 45.1 62 0.6 33
23:35 1024 30.24 853 25.19 7.1 44.8 65 1 33.8
23:40 1024 30.24 853 25.19 6.8 44.2 66 1 33.7
23:45 1024 30.24 853 25.19 6.6 43.8 67 0.9 33.6
23:50 1024 30.24 853 25.19 6.7 44 66 0.9 33.6
23:55 1024 30.24 853 25.19 6.8 44.3 67 1.1 34.1
24:00 1024 30.24 853 25.19 6.8 44.2 66 1 33.8